createdAt,value
2017-10-16T00:00:38.946Z,19.90
2017-10-16T00:03:06.131Z,20.00
2017-10-16T00:05:33.327Z,20.00
2017-10-16T00:08:00.472Z,19.90
2017-10-16T00:10:27.620Z,19.90
2017-10-16T00:12:54.809Z,19.90
2017-10-16T00:15:21.952Z,19.90
2017-10-16T00:17:49.142Z,19.90
2017-10-16T00:20:16.292Z,19.90
2017-10-16T00:22:43.435Z,19.90
2017-10-16T00:25:10.639Z,19.90
2017-10-16T00:27:37.793Z,19.90
2017-10-16T00:30:04.952Z,19.90
2017-10-16T00:32:32.132Z,20.00
2017-10-16T00:34:59.280Z,20.00
2017-10-16T00:37:26.472Z,20.00
2017-10-16T00:39:54.388Z,20.00
2017-10-16T00:42:21.536Z,20.00
2017-10-16T00:44:48.721Z,19.90
2017-10-16T00:47:15.881Z,19.90
2017-10-16T00:49:43.060Z,19.90
2017-10-16T00:52:10.247Z,19.90
2017-10-16T00:54:37.429Z,19.90
2017-10-16T00:57:04.576Z,19.90
2017-10-16T00:59:31.760Z,19.90
2017-10-16T01:01:59.681Z,20.00
2017-10-16T01:04:27.653Z,20.00
2017-10-16T01:06:54.805Z,20.00
2017-10-16T01:09:21.953Z,20.00
2017-10-16T01:11:50.058Z,19.90
2017-10-16T01:14:17.982Z,19.90
2017-10-16T01:16:45.179Z,19.90
2017-10-16T01:19:13.102Z,19.90
2017-10-16T01:21:40.300Z,19.90
2017-10-16T01:24:08.220Z,19.90
2017-10-16T01:26:35.371Z,19.90
2017-10-16T01:29:02.551Z,19.90
2017-10-16T01:31:29.745Z,19.90
2017-10-16T01:33:56.887Z,19.90
2017-10-16T01:36:24.804Z,19.90
2017-10-16T01:38:51.984Z,19.90
2017-10-16T01:41:19.172Z,19.90
2017-10-16T01:43:46.323Z,20.00
2017-10-16T01:46:13.513Z,20.10
2017-10-16T01:48:40.664Z,20.10
2017-10-16T01:51:07.856Z,20.20
2017-10-16T01:53:35.771Z,20.20
2017-10-16T01:56:02.923Z,20.20
2017-10-16T01:58:30.120Z,20.20
2017-10-16T02:00:57.273Z,20.20
2017-10-16T02:03:24.427Z,20.20
2017-10-16T02:05:52.393Z,20.20
2017-10-16T02:08:20.316Z,20.10
2017-10-16T02:10:47.467Z,20.10
2017-10-16T02:13:14.664Z,20.10
2017-10-16T02:15:42.589Z,20.10
2017-10-16T02:18:09.749Z,20.10
2017-10-16T02:20:36.936Z,20.10
2017-10-16T02:23:04.856Z,20.00
2017-10-16T02:25:32.036Z,20.00
2017-10-16T02:27:59.188Z,20.00
2017-10-16T02:30:27.162Z,20.00
2017-10-16T02:32:54.317Z,20.10
2017-10-16T02:35:21.465Z,20.10
2017-10-16T02:37:48.653Z,20.10
2017-10-16T02:40:16.565Z,20.00
2017-10-16T02:42:43.753Z,20.00
2017-10-16T02:45:10.904Z,20.00
2017-10-16T02:47:38.095Z,20.00
2017-10-16T02:50:05.275Z,20.00
2017-10-16T02:52:32.461Z,20.00
2017-10-16T02:55:00.387Z,20.00
2017-10-16T02:57:27.569Z,20.00
2017-10-16T02:59:54.711Z,20.00
2017-10-16T03:02:21.892Z,20.00
2017-10-16T03:04:49.811Z,20.00
2017-10-16T03:07:16.995Z,20.00
2017-10-16T03:09:44.140Z,20.00
2017-10-16T03:12:11.337Z,20.00
2017-10-16T03:14:38.494Z,20.00
2017-10-16T03:17:05.645Z,20.00
2017-10-16T03:19:32.829Z,20.00
2017-10-16T03:21:59.979Z,20.00
2017-10-16T03:24:27.168Z,20.00
2017-10-16T03:26:55.082Z,20.00
2017-10-16T03:29:22.263Z,20.00
2017-10-16T03:31:49.439Z,20.00
2017-10-16T03:34:17.391Z,20.00
2017-10-16T03:36:44.576Z,20.00
2017-10-16T03:39:12.492Z,20.00
2017-10-16T03:41:39.677Z,20.00
2017-10-16T03:44:06.829Z,20.00
2017-10-16T03:46:34.023Z,20.00
2017-10-16T03:49:01.201Z,20.00
2017-10-16T03:51:28.352Z,20.00
2017-10-16T03:53:55.535Z,20.00
2017-10-16T03:56:23.491Z,20.00
2017-10-16T03:58:50.641Z,20.00
2017-10-16T04:01:17.823Z,19.90
2017-10-16T04:03:45.771Z,19.90
2017-10-16T04:06:12.972Z,19.90
2017-10-16T04:08:40.125Z,19.90
2017-10-16T04:11:07.275Z,19.90
2017-10-16T04:13:34.448Z,19.90
2017-10-16T04:16:01.632Z,19.90
2017-10-16T04:18:28.815Z,19.90
2017-10-16T04:20:56.010Z,19.90
2017-10-16T04:23:23.167Z,19.90
2017-10-16T04:25:50.320Z,19.90
2017-10-16T04:28:17.505Z,19.90
2017-10-16T04:30:45.426Z,19.80
2017-10-16T04:33:12.615Z,19.80
2017-10-16T04:35:40.538Z,19.90
2017-10-16T04:38:07.692Z,19.90
2017-10-16T04:40:34.886Z,19.90
2017-10-16T04:43:02.042Z,19.90
2017-10-16T04:45:29.999Z,19.90
2017-10-16T04:47:57.168Z,19.90
2017-10-16T04:50:25.089Z,19.90
2017-10-16T04:52:52.280Z,19.90
2017-10-16T04:55:20.203Z,19.90
2017-10-16T04:57:47.352Z,19.90
2017-10-16T05:00:14.536Z,19.80
2017-10-16T05:02:41.688Z,19.80
2017-10-16T05:05:08.880Z,19.80
2017-10-16T05:07:36.081Z,19.80
2017-10-16T05:10:03.236Z,19.90
2017-10-16T05:12:30.388Z,19.90
2017-10-16T05:14:57.567Z,19.90
2017-10-16T05:17:25.481Z,19.90
2017-10-16T05:19:52.674Z,19.90
2017-10-16T05:22:19.825Z,19.90
2017-10-16T05:24:47.052Z,19.90
2017-10-16T05:27:14.256Z,19.90
2017-10-16T05:29:42.173Z,19.80
2017-10-16T05:32:09.320Z,19.80
2017-10-16T05:34:36.508Z,19.80
2017-10-16T05:37:03.660Z,19.80
2017-10-16T05:39:31.588Z,19.90
2017-10-16T05:41:58.765Z,19.80
2017-10-16T05:44:25.972Z,19.80
2017-10-16T05:46:53.132Z,19.80
2017-10-16T05:49:20.283Z,19.80
2017-10-16T05:51:47.475Z,19.90
2017-10-16T05:54:14.621Z,20.00
2017-10-16T05:56:41.772Z,20.10
2017-10-16T05:59:08.953Z,20.20
2017-10-16T06:01:36.876Z,20.20
2017-10-16T06:04:04.071Z,20.20
2017-10-16T06:06:31.991Z,20.30
2017-10-16T06:08:59.141Z,20.20
2017-10-16T06:11:26.336Z,20.30
2017-10-16T06:13:54.255Z,20.20
2017-10-16T06:16:21.412Z,20.20
2017-10-16T06:18:48.636Z,20.20
2017-10-16T06:21:15.791Z,20.20
2017-10-16T06:23:42.951Z,20.10
2017-10-16T06:26:10.152Z,20.10
2017-10-16T06:28:37.300Z,20.10
2017-10-16T06:31:04.448Z,20.10
2017-10-16T06:33:31.647Z,20.10
2017-10-16T06:35:58.799Z,20.00
2017-10-16T06:38:26.026Z,20.00
2017-10-16T06:40:53.180Z,20.00
2017-10-16T06:43:20.335Z,20.00
2017-10-16T06:45:47.524Z,20.00
2017-10-16T06:48:15.441Z,20.00
2017-10-16T06:50:42.658Z,20.00
2017-10-16T06:53:09.820Z,20.00
2017-10-16T06:55:36.977Z,20.00
2017-10-16T06:58:04.169Z,20.00
2017-10-16T07:00:32.134Z,20.00
2017-10-16T07:02:59.332Z,20.00
2017-10-16T07:05:26.488Z,20.00
2017-10-16T07:07:53.647Z,20.00
2017-10-16T07:10:20.837Z,19.90
2017-10-16T07:12:49.181Z,19.90
2017-10-16T07:15:17.171Z,19.90
2017-10-16T07:17:44.324Z,19.90
2017-10-16T07:20:12.292Z,19.90
2017-10-16T07:22:39.448Z,19.90
2017-10-16T07:25:06.959Z,19.90
2017-10-16T07:27:34.976Z,20.00
2017-10-16T07:30:02.163Z,19.90
2017-10-16T07:32:30.084Z,20.00
2017-10-16T07:34:57.256Z,19.90
2017-10-16T07:37:24.603Z,20.00
2017-10-16T07:39:51.799Z,20.00
2017-10-16T07:42:19.720Z,20.00
2017-10-16T07:44:46.917Z,19.90
2017-10-16T07:47:14.835Z,20.00
2017-10-16T07:49:42.007Z,20.00
2017-10-16T07:52:09.203Z,20.00
2017-10-16T07:54:36.356Z,20.00
2017-10-16T07:57:03.552Z,20.00
2017-10-16T07:59:30.708Z,19.90
2017-10-16T08:01:57.855Z,19.90
2017-10-16T08:04:25.051Z,19.90
2017-10-16T08:06:52.970Z,20.00
2017-10-16T08:09:20.241Z,20.00
2017-10-16T08:11:47.759Z,20.00
2017-10-16T08:14:14.928Z,20.00
2017-10-16T08:16:42.117Z,20.00
2017-10-16T08:19:09.272Z,20.00
2017-10-16T08:21:36.472Z,20.00
2017-10-16T08:24:03.635Z,20.00
2017-10-16T08:26:30.797Z,20.00
2017-10-16T08:28:57.952Z,20.00
2017-10-16T08:31:25.099Z,20.00
2017-10-16T08:33:52.287Z,20.00
2017-10-16T08:36:20.207Z,20.00
2017-10-16T08:38:47.359Z,20.00
2017-10-16T08:41:14.524Z,20.00
2017-10-16T08:43:41.675Z,20.00
2017-10-16T08:46:08.864Z,20.10
2017-10-16T08:48:36.777Z,20.10
2017-10-16T08:51:03.935Z,20.00
2017-10-16T08:53:31.083Z,20.10
2017-10-16T08:55:58.235Z,20.10
2017-10-16T08:58:25.392Z,20.10
2017-10-16T09:00:52.582Z,20.10
2017-10-16T09:03:20.505Z,20.10
2017-10-16T09:05:47.652Z,20.10
2017-10-16T09:08:14.797Z,20.10
2017-10-16T09:10:41.955Z,20.10
2017-10-16T09:13:09.110Z,20.10
2017-10-16T09:15:36.257Z,20.00
2017-10-16T09:18:03.404Z,20.10
2017-10-16T09:20:30.551Z,20.10
2017-10-16T09:22:57.703Z,20.10
2017-10-16T09:25:24.887Z,20.10
2017-10-16T09:27:52.031Z,20.10
2017-10-16T09:30:19.224Z,20.10
2017-10-16T09:32:47.147Z,20.10
2017-10-16T09:35:14.336Z,20.10
2017-10-16T09:37:41.520Z,20.10
2017-10-16T09:40:08.667Z,20.10
2017-10-16T09:42:35.861Z,20.10
2017-10-16T09:45:03.784Z,20.10
2017-10-16T09:47:30.927Z,20.20
2017-10-16T09:49:58.872Z,20.20
2017-10-16T09:52:26.016Z,20.10
2017-10-16T09:54:53.197Z,20.10
2017-10-16T09:57:21.107Z,20.10
2017-10-16T09:59:48.289Z,20.10
2017-10-16T10:02:15.486Z,20.20
2017-10-16T10:04:42.633Z,20.20
2017-10-16T10:07:09.775Z,20.20
2017-10-16T10:09:37.724Z,20.20
2017-10-16T10:12:04.880Z,20.20
2017-10-16T10:14:32.851Z,20.20
2017-10-16T10:17:00.770Z,20.20
2017-10-16T10:19:27.921Z,20.10
2017-10-16T10:21:55.108Z,20.20
2017-10-16T10:24:22.313Z,20.20
2017-10-16T10:26:49.472Z,20.20
2017-10-16T10:29:16.628Z,20.20
2017-10-16T10:31:43.812Z,20.20
2017-10-16T10:34:10.959Z,20.10
2017-10-16T10:36:38.157Z,20.10
2017-10-16T10:39:05.321Z,20.10
2017-10-16T10:41:32.488Z,20.10
2017-10-16T10:43:59.683Z,20.10
2017-10-16T10:46:27.615Z,20.10
2017-10-16T10:48:54.764Z,20.10
2017-10-16T10:51:21.947Z,20.10
2017-10-16T10:53:49.103Z,20.10
2017-10-16T10:56:16.295Z,20.10
2017-10-16T10:58:43.448Z,20.10
2017-10-16T11:01:10.600Z,20.10
2017-10-16T11:03:37.784Z,20.10
2017-10-16T11:06:04.963Z,20.10
2017-10-16T11:08:32.885Z,20.10
2017-10-16T11:11:00.085Z,20.10
2017-10-16T11:13:27.236Z,20.10
2017-10-16T11:15:54.391Z,20.10
2017-10-16T11:18:22.356Z,20.10
2017-10-16T11:20:50.288Z,20.00
2017-10-16T11:23:17.440Z,20.00
2017-10-16T11:25:44.640Z,20.00
2017-10-16T11:28:12.554Z,20.00
2017-10-16T11:30:39.702Z,20.00
2017-10-16T11:33:06.901Z,20.00
2017-10-16T11:35:34.826Z,20.00
2017-10-16T11:38:01.987Z,20.00
2017-10-16T11:40:29.184Z,20.00
2017-10-16T11:42:57.108Z,20.00
2017-10-16T11:45:24.256Z,20.00
2017-10-16T11:47:51.437Z,20.00
2017-10-16T11:50:18.627Z,20.00
2017-10-16T11:52:45.820Z,20.00
2017-10-16T11:55:12.968Z,20.00
2017-10-16T11:57:40.114Z,20.00
2017-10-16T12:00:07.303Z,20.00
2017-10-16T12:02:34.457Z,20.00
2017-10-16T12:05:02.409Z,20.00
2017-10-16T12:07:29.557Z,20.00
2017-10-16T12:09:56.740Z,20.00
2017-10-16T12:12:24.656Z,20.00
2017-10-16T12:14:51.846Z,20.00
2017-10-16T12:17:19.003Z,20.00
2017-10-16T12:19:46.923Z,20.00
2017-10-16T12:22:14.104Z,19.90
2017-10-16T12:24:41.258Z,20.00
2017-10-16T12:27:08.456Z,20.00
2017-10-16T12:29:35.609Z,20.00
2017-10-16T12:32:02.764Z,20.10
2017-10-16T12:34:29.947Z,20.10
2017-10-16T12:36:57.106Z,20.10
2017-10-16T12:39:24.303Z,20.10
2017-10-16T12:41:51.456Z,20.20
2017-10-16T12:44:18.599Z,20.20
2017-10-16T12:46:46.547Z,20.20
2017-10-16T12:49:13.755Z,20.20
2017-10-16T12:51:40.905Z,20.20
2017-10-16T12:54:08.051Z,20.20
2017-10-16T12:56:35.236Z,20.20
2017-10-16T12:59:02.384Z,20.20
2017-10-16T13:01:29.559Z,20.20
2017-10-16T13:03:57.488Z,20.20
2017-10-16T13:06:24.663Z,20.20
2017-10-16T13:08:51.816Z,20.20
2017-10-16T13:11:18.996Z,20.20
2017-10-16T13:13:46.915Z,20.20
2017-10-16T13:16:14.108Z,20.20
2017-10-16T13:18:42.031Z,20.20
2017-10-16T13:21:09.185Z,20.20
2017-10-16T13:23:36.379Z,20.20
2017-10-16T13:26:04.305Z,20.20
2017-10-16T13:28:32.216Z,20.20
2017-10-16T13:31:00.169Z,20.20
2017-10-16T13:33:27.376Z,20.20
2017-10-16T13:35:54.528Z,20.20
2017-10-16T13:38:21.676Z,20.20
2017-10-16T13:40:48.864Z,20.20
2017-10-16T13:43:16.016Z,20.20
2017-10-16T13:45:44.722Z,20.20
2017-10-16T13:48:11.880Z,20.20
2017-10-16T13:50:39.799Z,20.20
2017-10-16T13:53:06.999Z,20.20
2017-10-16T13:55:34.925Z,20.20
2017-10-16T13:58:02.089Z,20.20
2017-10-16T14:00:29.287Z,20.20
2017-10-16T14:02:57.204Z,20.20
2017-10-16T14:05:24.351Z,20.20
2017-10-16T14:07:51.527Z,20.20
2017-10-16T14:10:18.678Z,20.20
2017-10-16T14:12:45.877Z,20.10
2017-10-16T14:15:13.027Z,20.20
2017-10-16T14:17:40.207Z,20.20
2017-10-16T14:20:07.361Z,20.10
2017-10-16T14:22:34.555Z,20.10
2017-10-16T14:25:02.475Z,20.10
2017-10-16T14:27:29.628Z,20.10
2017-10-16T14:29:56.821Z,20.10
2017-10-16T14:32:24.743Z,20.10
2017-10-16T14:34:51.936Z,20.10
2017-10-16T14:37:19.082Z,20.10
2017-10-16T14:39:46.228Z,20.10
2017-10-16T14:42:13.417Z,20.10
2017-10-16T14:44:40.572Z,20.10
2017-10-16T14:47:07.768Z,20.10
2017-10-16T14:49:34.918Z,20.10
2017-10-16T14:52:02.079Z,20.10
2017-10-16T14:54:29.254Z,20.10
2017-10-16T14:56:57.232Z,20.10
2017-10-16T14:59:25.140Z,20.10
2017-10-16T15:01:52.313Z,20.10
2017-10-16T15:04:19.502Z,20.10
2017-10-16T15:06:47.468Z,20.10
2017-10-16T15:09:15.385Z,20.10
2017-10-16T15:11:42.536Z,20.10
2017-10-16T15:14:09.728Z,20.10
2017-10-16T15:16:36.875Z,20.10
2017-10-16T15:19:04.024Z,20.10
2017-10-16T15:21:31.204Z,20.10
2017-10-16T15:23:59.122Z,20.10
2017-10-16T15:26:27.080Z,20.10
2017-10-16T15:28:54.232Z,20.00
2017-10-16T15:31:21.381Z,20.10
2017-10-16T15:33:48.575Z,20.00
2017-10-16T15:36:15.727Z,20.00
2017-10-16T15:38:42.879Z,20.00
2017-10-16T15:41:10.059Z,20.00
2017-10-16T15:43:37.973Z,20.00
2017-10-16T15:46:05.160Z,20.00
2017-10-16T15:48:33.077Z,20.00
2017-10-16T15:51:00.276Z,20.00
2017-10-16T15:53:27.424Z,20.10
2017-10-16T15:55:54.575Z,20.10
2017-10-16T15:58:21.755Z,20.10
2017-10-16T16:00:48.904Z,20.10
2017-10-16T16:03:16.088Z,20.10
2017-10-16T16:05:44.012Z,20.00
2017-10-16T16:08:12.632Z,20.00
2017-10-16T16:10:39.784Z,20.00
2017-10-16T16:13:06.932Z,20.00
2017-10-16T16:15:34.116Z,20.00
2017-10-16T16:18:01.264Z,20.10
2017-10-16T16:20:29.217Z,20.30
2017-10-16T16:22:56.365Z,20.30
2017-10-16T16:25:23.548Z,20.30
2017-10-16T16:27:50.738Z,20.40
2017-10-16T16:30:18.659Z,20.50
2017-10-16T16:32:45.808Z,20.40
2017-10-16T16:35:12.995Z,20.50
2017-10-16T16:37:40.920Z,20.50
2017-10-16T16:40:08.117Z,20.50
2017-10-16T16:42:36.033Z,20.50
2017-10-16T16:45:03.219Z,20.50
2017-10-16T16:47:30.373Z,20.50
2017-10-16T16:49:57.588Z,20.50
2017-10-16T16:52:24.737Z,20.50
2017-10-16T16:54:51.924Z,20.50
2017-10-16T16:57:19.072Z,20.50
2017-10-16T16:59:46.246Z,20.40
2017-10-16T17:02:14.212Z,20.40
2017-10-16T17:04:42.183Z,20.40
2017-10-16T17:07:10.097Z,20.40
2017-10-16T17:09:37.249Z,20.40
2017-10-16T17:12:04.453Z,20.40
2017-10-16T17:14:32.374Z,20.40
2017-10-16T17:16:59.527Z,20.40
2017-10-16T17:19:26.719Z,20.40
2017-10-16T17:21:53.873Z,20.40
2017-10-16T17:24:21.030Z,20.40
2017-10-16T17:26:48.996Z,20.20
2017-10-16T17:29:16.153Z,20.20
2017-10-16T17:31:44.074Z,20.00
2017-10-16T17:34:11.264Z,19.90
2017-10-16T17:36:38.430Z,20.00
2017-10-16T17:39:06.389Z,20.20
2017-10-16T17:41:33.648Z,20.10
2017-10-16T17:44:01.621Z,20.20
2017-10-16T17:46:29.555Z,20.30
2017-10-16T17:48:56.700Z,20.20
2017-10-16T17:51:24.037Z,20.30
2017-10-16T17:53:51.193Z,20.30
2017-10-16T17:56:18.339Z,20.30
2017-10-16T17:58:45.556Z,20.30
2017-10-16T18:01:13.474Z,20.30
2017-10-16T18:03:40.719Z,20.20
2017-10-16T18:06:07.905Z,20.20
2017-10-16T18:08:35.088Z,20.20
2017-10-16T18:11:03.044Z,20.20
2017-10-16T18:13:30.961Z,20.30
2017-10-16T18:15:58.145Z,20.20
2017-10-16T18:18:25.301Z,20.30
2017-10-16T18:20:52.500Z,20.30
2017-10-16T18:23:19.664Z,20.30
2017-10-16T18:25:46.884Z,20.30
2017-10-16T18:28:14.831Z,20.30
2017-10-16T18:30:42.826Z,20.30
2017-10-16T18:33:10.780Z,20.30
2017-10-16T18:35:38.704Z,20.30
2017-10-16T18:38:05.993Z,20.20
2017-10-16T18:40:33.196Z,20.30
2017-10-16T18:43:00.368Z,20.20
2017-10-16T18:45:27.533Z,20.20
2017-10-16T18:47:54.730Z,20.20
2017-10-16T18:50:22.663Z,20.20
2017-10-16T18:52:49.861Z,20.20
2017-10-16T18:55:17.069Z,20.20
2017-10-16T18:57:44.222Z,20.20
2017-10-16T19:00:11.685Z,20.20
2017-10-16T19:02:39.918Z,20.20
2017-10-16T19:05:07.112Z,20.20
2017-10-16T19:07:34.944Z,20.20
2017-10-16T19:10:03.002Z,20.20
2017-10-16T19:12:30.819Z,20.20
2017-10-16T19:14:58.365Z,20.20
2017-10-16T19:17:25.806Z,20.20
2017-10-16T19:19:52.958Z,20.20
2017-10-16T19:22:20.355Z,20.20
2017-10-16T19:24:48.927Z,20.20
2017-10-16T19:27:17.128Z,20.20
2017-10-16T19:29:44.369Z,20.20
2017-10-16T19:32:11.777Z,20.20
2017-10-16T19:34:39.084Z,20.20
2017-10-16T19:37:07.029Z,20.10
2017-10-16T19:39:34.347Z,20.10
2017-10-16T19:42:01.545Z,20.10
2017-10-16T19:44:28.768Z,20.10
2017-10-16T19:46:55.945Z,20.10
2017-10-16T19:49:23.112Z,20.10
2017-10-16T19:51:51.030Z,20.10
2017-10-16T19:54:18.224Z,20.10
2017-10-16T19:56:45.375Z,20.10
2017-10-16T19:59:12.575Z,20.10
2017-10-16T20:01:39.747Z,20.10
2017-10-16T20:04:06.896Z,20.10
2017-10-16T20:06:34.048Z,20.10
2017-10-16T20:09:01.209Z,20.10
2017-10-16T20:11:28.409Z,20.10
2017-10-16T20:13:56.325Z,20.00
2017-10-16T20:16:23.476Z,20.00
2017-10-16T20:18:50.675Z,20.00
2017-10-16T20:21:18.589Z,20.00
2017-10-16T20:23:45.739Z,20.00
2017-10-16T20:26:12.913Z,20.00
2017-10-16T20:28:40.125Z,20.00
2017-10-16T20:31:07.293Z,20.00
2017-10-16T20:33:34.474Z,20.00
2017-10-16T20:36:01.645Z,20.00
2017-10-16T20:38:29.556Z,20.00
2017-10-16T20:40:56.743Z,20.00
2017-10-16T20:43:23.892Z,20.00
2017-10-16T20:45:51.088Z,20.00
2017-10-16T20:48:18.249Z,20.00
2017-10-16T20:50:45.480Z,20.00
2017-10-16T20:53:13.412Z,19.90
2017-10-16T20:55:40.567Z,19.90
2017-10-16T20:58:07.753Z,19.80
2017-10-16T21:00:35.668Z,19.70
2017-10-16T21:03:02.864Z,19.70
2017-10-16T21:05:30.782Z,19.70
2017-10-16T21:07:57.963Z,19.70
2017-10-16T21:10:25.148Z,19.80
2017-10-16T21:12:53.099Z,19.80
2017-10-16T21:15:20.281Z,19.80
2017-10-16T21:17:47.470Z,19.80
2017-10-16T21:20:14.619Z,19.90
2017-10-16T21:22:41.808Z,19.90
2017-10-16T21:25:09.825Z,19.90
2017-10-16T21:27:37.015Z,19.90
2017-10-16T21:30:04.220Z,19.90
2017-10-16T21:32:31.368Z,19.80
2017-10-16T21:34:58.512Z,19.80
2017-10-16T21:37:26.311Z,19.80
2017-10-16T21:39:53.459Z,19.80
2017-10-16T21:42:20.612Z,19.80
2017-10-16T21:44:48.630Z,19.90
2017-10-16T21:47:16.618Z,19.90
2017-10-16T21:49:43.816Z,19.90
2017-10-16T21:52:10.963Z,19.90
2017-10-16T21:54:38.880Z,19.90
2017-10-16T21:57:06.848Z,19.90
2017-10-16T21:59:34.771Z,19.90
2017-10-16T22:02:02.719Z,19.90
2017-10-16T22:04:29.875Z,19.90
2017-10-16T22:06:57.070Z,19.90
2017-10-16T22:09:24.236Z,19.90
2017-10-16T22:11:52.197Z,19.80
2017-10-16T22:14:19.338Z,19.80
2017-10-16T22:16:46.482Z,19.80
2017-10-16T22:19:13.626Z,19.80
2017-10-16T22:21:40.768Z,19.90
2017-10-16T22:24:07.956Z,19.90
2017-10-16T22:26:35.876Z,19.90
2017-10-16T22:29:03.072Z,19.90
2017-10-16T22:31:30.994Z,19.90
2017-10-16T22:33:58.185Z,19.90
2017-10-16T22:36:25.336Z,19.90
2017-10-16T22:38:52.532Z,19.90
2017-10-16T22:41:19.681Z,19.90
2017-10-16T22:43:46.828Z,19.90
2017-10-16T22:46:14.740Z,19.80
2017-10-16T22:48:42.503Z,19.80
2017-10-16T22:51:09.705Z,19.90
2017-10-16T22:53:38.389Z,20.10
2017-10-16T22:56:06.310Z,20.20
2017-10-16T22:58:33.461Z,20.20
2017-10-16T23:01:00.611Z,20.20
2017-10-16T23:03:27.803Z,20.20
2017-10-16T23:05:54.961Z,20.20
2017-10-16T23:08:22.880Z,20.20
2017-10-16T23:10:50.076Z,20.20
2017-10-16T23:13:17.997Z,20.20
2017-10-16T23:15:45.139Z,20.10
2017-10-16T23:18:12.284Z,20.20
2017-10-16T23:20:39.432Z,20.20
2017-10-16T23:23:06.617Z,20.10
2017-10-16T23:25:33.795Z,20.10
2017-10-16T23:28:00.972Z,20.10
2017-10-16T23:30:28.885Z,20.00
2017-10-16T23:32:56.071Z,20.00
2017-10-16T23:35:23.251Z,20.00
2017-10-16T23:37:50.400Z,20.00
2017-10-16T23:40:17.587Z,20.00
2017-10-16T23:42:44.764Z,20.00
2017-10-16T23:45:11.968Z,20.00
2017-10-16T23:47:39.112Z,20.00
2017-10-16T23:50:06.265Z,20.00
2017-10-16T23:52:33.415Z,20.00
2017-10-16T23:55:00.559Z,20.00
2017-10-16T23:57:27.739Z,20.00
2017-10-16T23:59:54.890Z,20.00
